sensor_id;sensor_type;location;lat;lon;timestamp;P1;durP1;ratioP1;P2;durP2;ratioP2
65597;SDS011;52267;51.984;20.956;2022-09-09T00:00:58;10.00;;;5.50;;
65597;SDS011;52267;51.984;20.956;2022-09-09T00:03:47;8.70;;;5.90;;
65597;SDS011;52267;51.984;20.956;2022-09-09T00:06:42;10.50;;;6.30;;
65597;SDS011;52267;51.984;20.956;2022-09-09T00:09:19;11.30;;;6.20;;
65597;SDS011;52267;51.984;20.956;2022-09-09T00:14:59;8.90;;;6.00;;
65597;SDS011;52267;51.984;20.956;2022-09-09T00:17:38;10.00;;;5.90;;
65597;SDS011;52267;51.984;20.956;2022-09-09T00:20:32;12.60;;;6.20;;
65597;SDS011;52267;51.984;20.956;2022-09-09T00:23:12;10.80;;;5.80;;
65597;SDS011;52267;51.984;20.956;2022-09-09T00:25:58;11.20;;;6.20;;
65597;SDS011;52267;51.984;20.956;2022-09-09T00:28:27;9.50;;;5.90;;
65597;SDS011;52267;51.984;20.956;2022-09-09T00:31:16;11.00;;;6.20;;
65597;SDS011;52267;51.984;20.956;2022-09-09T00:33:47;10.90;;;6.10;;
65597;SDS011;52267;51.984;20.956;2022-09-09T00:36:18;10.00;;;5.60;;
65597;SDS011;52267;51.984;20.956;2022-09-09T00:38:52;14.00;;;6.80;;
65597;SDS011;52267;51.984;20.956;2022-09-09T00:44:30;11.30;;;6.10;;
65597;SDS011;52267;51.984;20.956;2022-09-09T00:50:35;11.50;;;6.80;;
65597;SDS011;52267;51.984;20.956;2022-09-09T00:56:16;11.50;;;6.30;;
65597;SDS011;52267;51.984;20.956;2022-09-09T00:58:58;13.60;;;8.00;;
65597;SDS011;52267;51.984;20.956;2022-09-09T01:03:56;12.70;;;7.70;;
65597;SDS011;52267;51.984;20.956;2022-09-09T01:06:37;12.70;;;6.90;;
65597;SDS011;52267;51.984;20.956;2022-09-09T01:09:37;11.10;;;6.90;;
65597;SDS011;52267;51.984;20.956;2022-09-09T01:12:16;10.30;;;6.70;;
65597;SDS011;52267;51.984;20.956;2022-09-09T01:14:51;13.10;;;7.30;;
65597;SDS011;52267;51.984;20.956;2022-09-09T01:17:26;9.10;;;6.30;;
65597;SDS011;52267;51.984;20.956;2022-09-09T01:20:25;10.70;;;6.70;;
65597;SDS011;52267;51.984;20.956;2022-09-09T01:28:47;12.60;;;7.80;;
65597;SDS011;52267;51.984;20.956;2022-09-09T01:31:27;16.50;;;8.10;;
65597;SDS011;52267;51.984;20.956;2022-09-09T01:33:57;14.80;;;8.20;;
65597;SDS011;52267;51.984;20.956;2022-09-09T01:36:34;13.50;;;8.00;;
65597;SDS011;52267;51.984;20.956;2022-09-09T01:39:11;11.10;;;7.50;;
65597;SDS011;52267;51.984;20.956;2022-09-09T01:41:38;14.60;;;7.30;;
65597;SDS011;52267;51.984;20.956;2022-09-09T01:44:07;12.80;;;7.80;;
65597;SDS011;52267;51.984;20.956;2022-09-09T01:46:35;12.60;;;7.90;;
65597;SDS011;52267;51.984;20.956;2022-09-09T01:49:03;13.90;;;7.70;;
65597;SDS011;52267;51.984;20.956;2022-09-09T01:51:32;13.60;;;8.40;;
65597;SDS011;52267;51.984;20.956;2022-09-09T01:54:00;12.30;;;8.60;;
65597;SDS011;52267;51.984;20.956;2022-09-09T02:08:55;19.70;;;10.00;;
65597;SDS011;52267;51.984;20.956;2022-09-09T02:13:57;12.70;;;6.80;;
65597;SDS011;52267;51.984;20.956;2022-09-09T02:16:44;13.20;;;7.60;;
65597;SDS011;52267;51.984;20.956;2022-09-09T02:19:23;13.60;;;8.10;;
65597;SDS011;52267;51.984;20.956;2022-09-09T02:22:20;18.20;;;10.10;;
65597;SDS011;52267;51.984;20.956;2022-09-09T02:24:50;15.10;;;9.20;;
65597;SDS011;52267;51.984;20.956;2022-09-09T02:27:22;16.10;;;9.80;;
65597;SDS011;52267;51.984;20.956;2022-09-09T02:29:49;15.30;;;8.70;;
65597;SDS011;52267;51.984;20.956;2022-09-09T02:32:21;13.70;;;8.30;;
65597;SDS011;52267;51.984;20.956;2022-09-09T02:35:17;15.40;;;8.20;;
65597;SDS011;52267;51.984;20.956;2022-09-09T02:37:46;15.20;;;9.20;;
65597;SDS011;52267;51.984;20.956;2022-09-09T02:40:14;16.60;;;9.00;;
65597;SDS011;52267;51.984;20.956;2022-09-09T02:42:44;14.50;;;9.70;;
65597;SDS011;52267;51.984;20.956;2022-09-09T02:45:19;13.20;;;9.10;;
65597;SDS011;52267;51.984;20.956;2022-09-09T02:48:03;12.80;;;9.60;;
65597;SDS011;52267;51.984;20.956;2022-09-09T02:50:34;13.60;;;8.40;;
65597;SDS011;52267;51.984;20.956;2022-09-09T02:55:52;14.70;;;9.30;;
65597;SDS011;52267;51.984;20.956;2022-09-09T02:58:25;15.50;;;9.60;;
65597;SDS011;52267;51.984;20.956;2022-09-09T03:00:52;15.10;;;9.60;;
65597;SDS011;52267;51.984;20.956;2022-09-09T03:03:20;21.50;;;9.90;;
65597;SDS011;52267;51.984;20.956;2022-09-09T03:05:48;11.90;;;7.40;;
65597;SDS011;52267;51.984;20.956;2022-09-09T03:08:16;13.50;;;8.40;;
65597;SDS011;52267;51.984;20.956;2022-09-09T03:10:43;13.20;;;8.60;;
65597;SDS011;52267;51.984;20.956;2022-09-09T03:13:10;13.40;;;9.90;;
65597;SDS011;52267;51.984;20.956;2022-09-09T03:15:39;13.90;;;9.40;;
65597;SDS011;52267;51.984;20.956;2022-09-09T03:18:06;14.70;;;9.70;;
65597;SDS011;52267;51.984;20.956;2022-09-09T03:20:33;15.40;;;9.70;;
65597;SDS011;52267;51.984;20.956;2022-09-09T03:23:00;16.30;;;10.10;;
65597;SDS011;52267;51.984;20.956;2022-09-09T03:25:28;13.40;;;9.20;;
65597;SDS011;52267;51.984;20.956;2022-09-09T03:27:56;12.40;;;8.00;;
65597;SDS011;52267;51.984;20.956;2022-09-09T03:30:25;7.90;;;4.50;;
65597;SDS011;52267;51.984;20.956;2022-09-09T03:32:53;18.80;;;9.10;;
65597;SDS011;52267;51.984;20.956;2022-09-09T03:35:21;10.80;;;6.10;;
65597;SDS011;52267;51.984;20.956;2022-09-09T03:37:48;13.00;;;8.10;;
65597;SDS011;52267;51.984;20.956;2022-09-09T03:40:15;12.50;;;8.00;;
65597;SDS011;52267;51.984;20.956;2022-09-09T03:42:42;10.80;;;6.50;;
65597;SDS011;52267;51.984;20.956;2022-09-09T03:45:09;12.70;;;8.10;;
65597;SDS011;52267;51.984;20.956;2022-09-09T03:47:37;14.20;;;8.30;;
65597;SDS011;52267;51.984;20.956;2022-09-09T03:50:05;10.80;;;7.60;;
65597;SDS011;52267;51.984;20.956;2022-09-09T03:52:36;11.10;;;7.80;;
65597;SDS011;52267;51.984;20.956;2022-09-09T03:55:04;11.10;;;7.60;;
65597;SDS011;52267;51.984;20.956;2022-09-09T04:11:15;11.20;;;8.00;;
65597;SDS011;52267;51.984;20.956;2022-09-09T04:13:42;11.40;;;7.50;;
65597;SDS011;52267;51.984;20.956;2022-09-09T04:16:11;11.10;;;7.70;;
65597;SDS011;52267;51.984;20.956;2022-09-09T04:18:42;11.30;;;7.40;;
65597;SDS011;52267;51.984;20.956;2022-09-09T04:21:10;10.50;;;6.60;;
65597;SDS011;52267;51.984;20.956;2022-09-09T04:23:38;8.90;;;6.50;;
65597;SDS011;52267;51.984;20.956;2022-09-09T04:26:05;10.50;;;7.30;;
65597;SDS011;52267;51.984;20.956;2022-09-09T04:28:34;9.70;;;6.60;;
65597;SDS011;52267;51.984;20.956;2022-09-09T04:31:08;13.50;;;8.30;;
65597;SDS011;52267;51.984;20.956;2022-09-09T04:33:37;11.90;;;7.90;;
65597;SDS011;52267;51.984;20.956;2022-09-09T04:36:06;12.30;;;8.60;;
65597;SDS011;52267;51.984;20.956;2022-09-09T04:38:35;11.90;;;7.60;;
65597;SDS011;52267;51.984;20.956;2022-09-09T04:41:02;12.40;;;8.40;;
65597;SDS011;52267;51.984;20.956;2022-09-09T04:43:29;13.10;;;8.80;;
65597;SDS011;52267;51.984;20.956;2022-09-09T04:45:57;12.00;;;8.00;;
65597;SDS011;52267;51.984;20.956;2022-09-09T04:48:25;10.40;;;7.50;;
65597;SDS011;52267;51.984;20.956;2022-09-09T04:51:08;11.60;;;8.30;;
65597;SDS011;52267;51.984;20.956;2022-09-09T04:53:35;12.80;;;7.90;;
65597;SDS011;52267;51.984;20.956;2022-09-09T04:56:05;10.10;;;7.10;;
65597;SDS011;52267;51.984;20.956;2022-09-09T04:58:33;11.70;;;7.60;;
65597;SDS011;52267;51.984;20.956;2022-09-09T05:01:08;10.80;;;7.00;;
65597;SDS011;52267;51.984;20.956;2022-09-09T05:03:40;10.90;;;7.90;;
65597;SDS011;52267;51.984;20.956;2022-09-09T05:06:09;11.60;;;7.70;;
65597;SDS011;52267;51.984;20.956;2022-09-09T05:08:38;12.30;;;8.30;;
65597;SDS011;52267;51.984;20.956;2022-09-09T05:11:20;10.80;;;7.60;;
65597;SDS011;52267;51.984;20.956;2022-09-09T05:13:52;12.20;;;7.80;;
65597;SDS011;52267;51.984;20.956;2022-09-09T05:16:20;11.20;;;7.90;;
65597;SDS011;52267;51.984;20.956;2022-09-09T05:18:49;12.10;;;8.40;;
65597;SDS011;52267;51.984;20.956;2022-09-09T05:21:19;10.60;;;7.10;;
65597;SDS011;52267;51.984;20.956;2022-09-09T05:23:47;11.60;;;7.80;;
65597;SDS011;52267;51.984;20.956;2022-09-09T05:26:16;12.00;;;8.70;;
65597;SDS011;52267;51.984;20.956;2022-09-09T05:28:45;11.80;;;8.30;;
65597;SDS011;52267;51.984;20.956;2022-09-09T05:31:14;13.30;;;7.90;;
65597;SDS011;52267;51.984;20.956;2022-09-09T05:33:44;14.20;;;8.80;;
65597;SDS011;52267;51.984;20.956;2022-09-09T05:36:14;12.90;;;9.10;;
65597;SDS011;52267;51.984;20.956;2022-09-09T05:38:46;11.80;;;9.20;;
65597;SDS011;52267;51.984;20.956;2022-09-09T05:41:13;14.30;;;9.40;;
65597;SDS011;52267;51.984;20.956;2022-09-09T05:43:44;12.30;;;8.90;;
65597;SDS011;52267;51.984;20.956;2022-09-09T05:46:14;13.20;;;9.60;;
65597;SDS011;52267;51.984;20.956;2022-09-09T05:48:44;11.80;;;8.40;;
65597;SDS011;52267;51.984;20.956;2022-09-09T05:51:16;13.60;;;8.80;;
65597;SDS011;52267;51.984;20.956;2022-09-09T05:53:48;13.10;;;9.00;;
65597;SDS011;52267;51.984;20.956;2022-09-09T05:56:19;14.10;;;9.00;;
65597;SDS011;52267;51.984;20.956;2022-09-09T05:58:54;15.20;;;9.60;;
65597;SDS011;52267;51.984;20.956;2022-09-09T06:01:30;12.90;;;10.10;;
65597;SDS011;52267;51.984;20.956;2022-09-09T06:03:59;13.10;;;9.20;;
65597;SDS011;52267;51.984;20.956;2022-09-09T06:06:30;15.10;;;9.80;;
65597;SDS011;52267;51.984;20.956;2022-09-09T06:09:04;16.80;;;9.90;;
65597;SDS011;52267;51.984;20.956;2022-09-09T06:11:39;14.70;;;9.60;;
65597;SDS011;52267;51.984;20.956;2022-09-09T06:14:07;18.50;;;9.70;;
65597;SDS011;52267;51.984;20.956;2022-09-09T06:16:34;13.90;;;9.20;;
65597;SDS011;52267;51.984;20.956;2022-09-09T06:19:04;14.20;;;8.90;;
65597;SDS011;52267;51.984;20.956;2022-09-09T06:21:33;13.90;;;9.60;;
65597;SDS011;52267;51.984;20.956;2022-09-09T06:24:06;12.60;;;9.20;;
65597;SDS011;52267;51.984;20.956;2022-09-09T06:26:38;15.40;;;9.70;;
65597;SDS011;52267;51.984;20.956;2022-09-09T06:29:09;16.10;;;11.00;;
65597;SDS011;52267;51.984;20.956;2022-09-09T06:31:37;15.40;;;10.30;;
65597;SDS011;52267;51.984;20.956;2022-09-09T06:34:08;15.80;;;10.30;;
65597;SDS011;52267;51.984;20.956;2022-09-09T06:36:37;15.10;;;10.30;;
65597;SDS011;52267;51.984;20.956;2022-09-09T06:39:06;14.40;;;9.90;;
65597;SDS011;52267;51.984;20.956;2022-09-09T06:41:35;15.00;;;10.40;;
65597;SDS011;52267;51.984;20.956;2022-09-09T06:44:04;15.50;;;10.70;;
65597;SDS011;52267;51.984;20.956;2022-09-09T06:46:32;14.10;;;9.10;;
65597;SDS011;52267;51.984;20.956;2022-09-09T06:49:01;16.10;;;10.50;;
65597;SDS011;52267;51.984;20.956;2022-09-09T06:51:33;12.80;;;8.90;;
65597;SDS011;52267;51.984;20.956;2022-09-09T06:54:01;15.30;;;11.20;;
65597;SDS011;52267;51.984;20.956;2022-09-09T06:56:36;20.20;;;11.10;;
65597;SDS011;52267;51.984;20.956;2022-09-09T06:59:07;15.50;;;10.20;;
65597;SDS011;52267;51.984;20.956;2022-09-09T07:01:38;19.40;;;11.20;;
65597;SDS011;52267;51.984;20.956;2022-09-09T07:04:07;16.20;;;10.90;;
65597;SDS011;52267;51.984;20.956;2022-09-09T07:06:42;15.00;;;10.90;;
65597;SDS011;52267;51.984;20.956;2022-09-09T07:09:12;16.70;;;10.90;;
65597;SDS011;52267;51.984;20.956;2022-09-09T07:11:45;17.10;;;11.90;;
65597;SDS011;52267;51.984;20.956;2022-09-09T07:14:16;19.70;;;11.00;;
65597;SDS011;52267;51.984;20.956;2022-09-09T07:16:44;17.40;;;11.50;;
65597;SDS011;52267;51.984;20.956;2022-09-09T07:19:12;20.10;;;12.00;;
65597;SDS011;52267;51.984;20.956;2022-09-09T07:21:42;19.80;;;11.60;;
65597;SDS011;52267;51.984;20.956;2022-09-09T07:24:10;18.50;;;10.70;;
65597;SDS011;52267;51.984;20.956;2022-09-09T07:26:40;21.00;;;10.90;;
65597;SDS011;52267;51.984;20.956;2022-09-09T07:29:08;15.60;;;10.90;;
65597;SDS011;52267;51.984;20.956;2022-09-09T07:31:39;16.70;;;11.90;;
65597;SDS011;52267;51.984;20.956;2022-09-09T07:34:08;17.10;;;10.90;;
65597;SDS011;52267;51.984;20.956;2022-09-09T07:36:39;17.20;;;12.00;;
65597;SDS011;52267;51.984;20.956;2022-09-09T07:39:10;17.80;;;11.50;;
65597;SDS011;52267;51.984;20.956;2022-09-09T07:44:20;17.50;;;12.10;;
65597;SDS011;52267;51.984;20.956;2022-09-09T07:46:49;20.30;;;12.00;;
65597;SDS011;52267;51.984;20.956;2022-09-09T07:49:16;21.80;;;12.90;;
65597;SDS011;52267;51.984;20.956;2022-09-09T07:51:46;19.00;;;12.50;;
65597;SDS011;52267;51.984;20.956;2022-09-09T07:54:22;17.60;;;12.60;;
65597;SDS011;52267;51.984;20.956;2022-09-09T07:56:52;18.10;;;12.00;;
65597;SDS011;52267;51.984;20.956;2022-09-09T07:59:20;23.00;;;14.70;;
65597;SDS011;52267;51.984;20.956;2022-09-09T08:01:49;20.20;;;13.50;;
65597;SDS011;52267;51.984;20.956;2022-09-09T08:04:24;20.70;;;13.00;;
65597;SDS011;52267;51.984;20.956;2022-09-09T08:06:56;20.40;;;13.30;;
65597;SDS011;52267;51.984;20.956;2022-09-09T08:09:29;21.70;;;13.10;;
65597;SDS011;52267;51.984;20.956;2022-09-09T08:11:57;23.80;;;13.90;;
65597;SDS011;52267;51.984;20.956;2022-09-09T08:14:24;23.10;;;13.90;;
65597;SDS011;52267;51.984;20.956;2022-09-09T08:16:54;24.60;;;14.00;;
65597;SDS011;52267;51.984;20.956;2022-09-09T08:19:21;22.10;;;14.00;;
65597;SDS011;52267;51.984;20.956;2022-09-09T08:21:48;23.50;;;14.00;;
65597;SDS011;52267;51.984;20.956;2022-09-09T08:24:17;24.90;;;14.90;;
65597;SDS011;52267;51.984;20.956;2022-09-09T08:26:47;27.60;;;15.90;;
65597;SDS011;52267;51.984;20.956;2022-09-09T08:29:20;25.30;;;14.50;;
65597;SDS011;52267;51.984;20.956;2022-09-09T08:31:52;25.00;;;15.10;;
65597;SDS011;52267;51.984;20.956;2022-09-09T08:34:21;27.00;;;14.80;;
65597;SDS011;52267;51.984;20.956;2022-09-09T08:36:50;22.70;;;13.30;;
65597;SDS011;52267;51.984;20.956;2022-09-09T08:39:20;23.60;;;13.70;;
65597;SDS011;52267;51.984;20.956;2022-09-09T08:51:30;24.30;;;14.90;;
65597;SDS011;52267;51.984;20.956;2022-09-09T08:54:11;23.30;;;13.30;;
65597;SDS011;52267;51.984;20.956;2022-09-09T08:56:39;22.10;;;13.40;;
65597;SDS011;52267;51.984;20.956;2022-09-09T08:59:11;26.80;;;15.00;;
65597;SDS011;52267;51.984;20.956;2022-09-09T09:02:07;25.70;;;15.20;;
65597;SDS011;52267;51.984;20.956;2022-09-09T09:07:39;25.60;;;14.30;;
65597;SDS011;52267;51.984;20.956;2022-09-09T09:13:03;28.10;;;16.30;;
65597;SDS011;52267;51.984;20.956;2022-09-09T09:15:36;27.10;;;16.00;;
65597;SDS011;52267;51.984;20.956;2022-09-09T09:18:05;31.90;;;17.40;;
65597;SDS011;52267;51.984;20.956;2022-09-09T09:20:50;27.30;;;16.10;;
65597;SDS011;52267;51.984;20.956;2022-09-09T09:23:29;25.10;;;14.80;;
65597;SDS011;52267;51.984;20.956;2022-09-09T09:26:21;24.60;;;15.70;;
65597;SDS011;52267;51.984;20.956;2022-09-09T09:28:56;29.00;;;15.80;;
65597;SDS011;52267;51.984;20.956;2022-09-09T09:31:28;26.60;;;15.50;;
65597;SDS011;52267;51.984;20.956;2022-09-09T09:33:56;28.30;;;16.10;;
65597;SDS011;52267;51.984;20.956;2022-09-09T09:36:34;28.00;;;16.00;;
65597;SDS011;52267;51.984;20.956;2022-09-09T09:39:08;26.90;;;14.40;;
65597;SDS011;52267;51.984;20.956;2022-09-09T09:41:40;29.60;;;15.40;;
65597;SDS011;52267;51.984;20.956;2022-09-09T09:46:50;27.00;;;16.00;;
65597;SDS011;52267;51.984;20.956;2022-09-09T09:49:18;29.90;;;16.40;;
65597;SDS011;52267;51.984;20.956;2022-09-09T09:51:46;27.80;;;16.20;;
65597;SDS011;52267;51.984;20.956;2022-09-09T09:54:38;27.10;;;15.50;;
65597;SDS011;52267;51.984;20.956;2022-09-09T09:57:16;31.30;;;17.60;;
65597;SDS011;52267;51.984;20.956;2022-09-09T09:59:43;29.40;;;16.80;;
65597;SDS011;52267;51.984;20.956;2022-09-09T10:02:17;27.80;;;16.50;;
65597;SDS011;52267;51.984;20.956;2022-09-09T10:04:46;28.70;;;15.10;;
65597;SDS011;52267;51.984;20.956;2022-09-09T10:07:19;27.60;;;16.60;;
65597;SDS011;52267;51.984;20.956;2022-09-09T10:09:56;28.70;;;16.80;;
65597;SDS011;52267;51.984;20.956;2022-09-09T10:13:27;27.70;;;17.40;;
65597;SDS011;52267;51.984;20.956;2022-09-09T10:16:22;27.90;;;17.80;;
65597;SDS011;52267;51.984;20.956;2022-09-09T10:19:13;32.10;;;17.60;;
65597;SDS011;52267;51.984;20.956;2022-09-09T10:22:32;28.50;;;16.80;;
65597;SDS011;52267;51.984;20.956;2022-09-09T10:36:52;35.20;;;19.60;;
65597;SDS011;52267;51.984;20.956;2022-09-09T10:39:38;29.50;;;17.90;;
65597;SDS011;52267;51.984;20.956;2022-09-09T10:42:16;32.70;;;18.60;;
65597;SDS011;52267;51.984;20.956;2022-09-09T10:48:09;32.40;;;17.50;;
65597;SDS011;52267;51.984;20.956;2022-09-09T10:51:20;34.50;;;19.20;;
65597;SDS011;52267;51.984;20.956;2022-09-09T10:54:19;32.90;;;18.70;;
65597;SDS011;52267;51.984;20.956;2022-09-09T10:57:04;32.70;;;19.40;;
65597;SDS011;52267;51.984;20.956;2022-09-09T10:59:53;33.30;;;18.60;;
65597;SDS011;52267;51.984;20.956;2022-09-09T11:05:05;31.60;;;19.30;;
65597;SDS011;52267;51.984;20.956;2022-09-09T11:07:43;30.40;;;17.40;;
65597;SDS011;52267;51.984;20.956;2022-09-09T11:10:34;30.00;;;18.90;;
65597;SDS011;52267;51.984;20.956;2022-09-09T11:25:26;35.60;;;18.70;;
65597;SDS011;52267;51.984;20.956;2022-09-09T11:28:30;33.20;;;18.30;;
65597;SDS011;52267;51.984;20.956;2022-09-09T11:31:27;31.40;;;19.60;;
65597;SDS011;52267;51.984;20.956;2022-09-09T11:37:24;31.60;;;18.40;;
65597;SDS011;52267;51.984;20.956;2022-09-09T11:40:24;36.10;;;19.40;;
65597;SDS011;52267;51.984;20.956;2022-09-09T11:43:15;35.00;;;20.50;;
65597;SDS011;52267;51.984;20.956;2022-09-09T11:45:52;35.40;;;20.50;;
65597;SDS011;52267;51.984;20.956;2022-09-09T11:48:38;35.00;;;20.70;;
65597;SDS011;52267;51.984;20.956;2022-09-09T11:54:02;33.30;;;18.40;;
65597;SDS011;52267;51.984;20.956;2022-09-09T11:56:52;34.60;;;19.90;;
65597;SDS011;52267;51.984;20.956;2022-09-09T11:59:26;33.70;;;20.30;;
65597;SDS011;52267;51.984;20.956;2022-09-09T12:02:16;31.40;;;18.80;;
65597;SDS011;52267;51.984;20.956;2022-09-09T12:05:08;30.50;;;18.40;;
65597;SDS011;52267;51.984;20.956;2022-09-09T12:07:56;31.60;;;19.10;;
65597;SDS011;52267;51.984;20.956;2022-09-09T12:10:32;37.30;;;20.40;;
65597;SDS011;52267;51.984;20.956;2022-09-09T12:13:27;33.50;;;19.80;;
65597;SDS011;52267;51.984;20.956;2022-09-09T12:15:59;35.20;;;20.00;;
65597;SDS011;52267;51.984;20.956;2022-09-09T12:18:35;33.70;;;20.00;;
65597;SDS011;52267;51.984;20.956;2022-09-09T12:24:18;33.70;;;18.60;;
65597;SDS011;52267;51.984;20.956;2022-09-09T12:27:02;35.70;;;19.70;;
65597;SDS011;52267;51.984;20.956;2022-09-09T12:30:10;33.50;;;18.70;;
65597;SDS011;52267;51.984;20.956;2022-09-09T12:32:39;32.20;;;19.40;;
65597;SDS011;52267;51.984;20.956;2022-09-09T12:35:12;34.30;;;20.40;;
65597;SDS011;52267;51.984;20.956;2022-09-09T12:37:52;36.40;;;21.20;;
65597;SDS011;52267;51.984;20.956;2022-09-09T12:40:30;36.30;;;19.50;;
65597;SDS011;52267;51.984;20.956;2022-09-09T12:43:21;45.20;;;22.70;;
65597;SDS011;52267;51.984;20.956;2022-09-09T12:46:08;37.10;;;22.90;;
65597;SDS011;52267;51.984;20.956;2022-09-09T12:48:44;35.20;;;20.60;;
65597;SDS011;52267;51.984;20.956;2022-09-09T12:51:21;38.80;;;20.40;;
65597;SDS011;52267;51.984;20.956;2022-09-09T12:53:52;34.50;;;19.90;;
65597;SDS011;52267;51.984;20.956;2022-09-09T12:56:28;37.90;;;22.90;;
65597;SDS011;52267;51.984;20.956;2022-09-09T12:58:58;37.70;;;20.50;;
65597;SDS011;52267;51.984;20.956;2022-09-09T13:01:31;40.00;;;21.60;;
65597;SDS011;52267;51.984;20.956;2022-09-09T13:04:20;41.80;;;24.40;;
65597;SDS011;52267;51.984;20.956;2022-09-09T13:06:48;42.50;;;21.10;;
65597;SDS011;52267;51.984;20.956;2022-09-09T13:09:18;37.80;;;20.10;;
65597;SDS011;52267;51.984;20.956;2022-09-09T13:11:54;37.00;;;19.90;;
65597;SDS011;52267;51.984;20.956;2022-09-09T13:14:30;32.30;;;18.10;;
65597;SDS011;52267;51.984;20.956;2022-09-09T13:17:03;30.00;;;18.70;;
65597;SDS011;52267;51.984;20.956;2022-09-09T13:19:37;31.60;;;17.60;;
65597;SDS011;52267;51.984;20.956;2022-09-09T13:22:19;36.60;;;20.20;;
65597;SDS011;52267;51.984;20.956;2022-09-09T13:27:39;40.10;;;20.80;;
65597;SDS011;52267;51.984;20.956;2022-09-09T13:35:54;37.10;;;21.10;;
65597;SDS011;52267;51.984;20.956;2022-09-09T13:38:25;43.30;;;21.20;;
65597;SDS011;52267;51.984;20.956;2022-09-09T13:43:27;47.20;;;22.90;;
65597;SDS011;52267;51.984;20.956;2022-09-09T13:46:00;40.50;;;19.80;;
65597;SDS011;52267;51.984;20.956;2022-09-09T13:48:31;44.00;;;22.40;;
65597;SDS011;52267;51.984;20.956;2022-09-09T13:51:02;41.40;;;20.10;;
65597;SDS011;52267;51.984;20.956;2022-09-09T13:53:33;36.80;;;18.40;;
65597;SDS011;52267;51.984;20.956;2022-09-09T13:56:02;43.60;;;20.80;;
65597;SDS011;52267;51.984;20.956;2022-09-09T13:58:30;40.80;;;20.50;;
65597;SDS011;52267;51.984;20.956;2022-09-09T14:01:01;45.60;;;20.80;;
65597;SDS011;52267;51.984;20.956;2022-09-09T14:03:29;42.10;;;19.60;;
65597;SDS011;52267;51.984;20.956;2022-09-09T14:05:57;45.00;;;22.20;;
65597;SDS011;52267;51.984;20.956;2022-09-09T14:08:43;43.60;;;19.30;;
65597;SDS011;52267;51.984;20.956;2022-09-09T14:11:18;40.90;;;20.20;;
65597;SDS011;52267;51.984;20.956;2022-09-09T14:13:59;35.50;;;19.50;;
65597;SDS011;52267;51.984;20.956;2022-09-09T14:16:45;40.90;;;20.80;;
65597;SDS011;52267;51.984;20.956;2022-09-09T14:19:15;38.60;;;18.50;;
65597;SDS011;52267;51.984;20.956;2022-09-09T14:21:47;37.50;;;18.90;;
65597;SDS011;52267;51.984;20.956;2022-09-09T14:24:16;41.20;;;19.90;;
65597;SDS011;52267;51.984;20.956;2022-09-09T14:26:44;40.70;;;20.50;;
65597;SDS011;52267;51.984;20.956;2022-09-09T14:29:13;41.30;;;20.50;;
65597;SDS011;52267;51.984;20.956;2022-09-09T14:31:41;41.20;;;18.40;;
65597;SDS011;52267;51.984;20.956;2022-09-09T14:34:13;35.80;;;18.70;;
65597;SDS011;52267;51.984;20.956;2022-09-09T14:36:42;36.50;;;18.20;;
65597;SDS011;52267;51.984;20.956;2022-09-09T14:39:11;40.40;;;20.90;;
65597;SDS011;52267;51.984;20.956;2022-09-09T14:41:51;33.80;;;18.50;;
65597;SDS011;52267;51.984;20.956;2022-09-09T14:44:18;41.30;;;19.40;;
65597;SDS011;52267;51.984;20.956;2022-09-09T14:46:47;41.00;;;19.80;;
65597;SDS011;52267;51.984;20.956;2022-09-09T14:49:16;41.10;;;19.20;;
65597;SDS011;52267;51.984;20.956;2022-09-09T14:51:43;37.30;;;19.30;;
65597;SDS011;52267;51.984;20.956;2022-09-09T14:54:10;38.90;;;20.60;;
65597;SDS011;52267;51.984;20.956;2022-09-09T14:56:37;36.80;;;19.30;;
65597;SDS011;52267;51.984;20.956;2022-09-09T14:59:04;43.80;;;21.80;;
65597;SDS011;52267;51.984;20.956;2022-09-09T15:01:31;42.80;;;21.70;;
65597;SDS011;52267;51.984;20.956;2022-09-09T15:04:03;36.10;;;19.20;;
65597;SDS011;52267;51.984;20.956;2022-09-09T15:06:34;37.20;;;19.60;;
65597;SDS011;52267;51.984;20.956;2022-09-09T15:09:03;40.10;;;21.70;;
65597;SDS011;52267;51.984;20.956;2022-09-09T15:11:34;38.50;;;19.70;;
65597;SDS011;52267;51.984;20.956;2022-09-09T15:14:05;40.80;;;19.70;;
65597;SDS011;52267;51.984;20.956;2022-09-09T15:16:34;39.90;;;21.10;;
65597;SDS011;52267;51.984;20.956;2022-09-09T15:19:02;39.40;;;21.10;;
65597;SDS011;52267;51.984;20.956;2022-09-09T15:21:34;36.00;;;20.00;;
65597;SDS011;52267;51.984;20.956;2022-09-09T15:24:02;43.40;;;21.50;;
65597;SDS011;52267;51.984;20.956;2022-09-09T15:26:30;37.10;;;20.30;;
65597;SDS011;52267;51.984;20.956;2022-09-09T15:28:58;35.10;;;19.40;;
65597;SDS011;52267;51.984;20.956;2022-09-09T15:31:30;38.00;;;19.40;;
65597;SDS011;52267;51.984;20.956;2022-09-09T15:34:00;32.70;;;18.60;;
65597;SDS011;52267;51.984;20.956;2022-09-09T15:36:33;32.70;;;19.20;;
65597;SDS011;52267;51.984;20.956;2022-09-09T15:39:07;36.70;;;18.10;;
65597;SDS011;52267;51.984;20.956;2022-09-09T15:44:03;34.30;;;16.60;;
65597;SDS011;52267;51.984;20.956;2022-09-09T15:46:32;30.60;;;16.90;;
65597;SDS011;52267;51.984;20.956;2022-09-09T15:51:39;35.30;;;18.10;;
65597;SDS011;52267;51.984;20.956;2022-09-09T15:56:43;32.20;;;18.60;;
65597;SDS011;52267;51.984;20.956;2022-09-09T15:59:15;33.50;;;18.00;;
65597;SDS011;52267;51.984;20.956;2022-09-09T16:01:43;36.80;;;19.50;;
65597;SDS011;52267;51.984;20.956;2022-09-09T16:04:10;32.60;;;17.00;;
65597;SDS011;52267;51.984;20.956;2022-09-09T16:06:37;32.30;;;19.00;;
65597;SDS011;52267;51.984;20.956;2022-09-09T16:09:06;35.80;;;20.30;;
65597;SDS011;52267;51.984;20.956;2022-09-09T16:11:36;33.10;;;17.20;;
65597;SDS011;52267;51.984;20.956;2022-09-09T16:14:04;34.10;;;18.30;;
65597;SDS011;52267;51.984;20.956;2022-09-09T16:16:33;34.90;;;19.30;;
65597;SDS011;52267;51.984;20.956;2022-09-09T16:19:12;34.80;;;18.00;;
65597;SDS011;52267;51.984;20.956;2022-09-09T16:21:47;36.30;;;19.40;;
65597;SDS011;52267;51.984;20.956;2022-09-09T16:24:17;36.00;;;19.30;;
65597;SDS011;52267;51.984;20.956;2022-09-09T16:26:51;35.80;;;19.90;;
65597;SDS011;52267;51.984;20.956;2022-09-09T16:29:21;37.50;;;21.40;;
65597;SDS011;52267;51.984;20.956;2022-09-09T16:31:49;36.30;;;19.00;;
65597;SDS011;52267;51.984;20.956;2022-09-09T16:34:17;42.50;;;20.10;;
65597;SDS011;52267;51.984;20.956;2022-09-09T16:36:46;34.40;;;19.00;;
65597;SDS011;52267;51.984;20.956;2022-09-09T16:39:16;38.50;;;19.90;;
65597;SDS011;52267;51.984;20.956;2022-09-09T16:44:15;30.80;;;17.40;;
65597;SDS011;52267;51.984;20.956;2022-09-09T16:49:15;35.60;;;19.20;;
65597;SDS011;52267;51.984;20.956;2022-09-09T16:51:45;36.70;;;18.90;;
65597;SDS011;52267;51.984;20.956;2022-09-09T16:54:14;38.70;;;18.90;;
65597;SDS011;52267;51.984;20.956;2022-09-09T16:56:44;38.40;;;19.80;;
65597;SDS011;52267;51.984;20.956;2022-09-09T16:59:18;33.50;;;18.50;;
65597;SDS011;52267;51.984;20.956;2022-09-09T17:01:49;37.70;;;20.00;;
65597;SDS011;52267;51.984;20.956;2022-09-09T17:04:20;36.40;;;19.80;;
65597;SDS011;52267;51.984;20.956;2022-09-09T17:06:52;32.90;;;19.20;;